Terminal Aerodrome Forecast
Issued by NWS

Home | Current Version | Previous Version | Text Only | Print | Product List | Glossary On
Versions: 1 2 3 4 5 6 7 8 9 10 11 12 13 14 15 16 17 18 19 20 21 22 23 24
000
FTUS45 KBOU 152056 AAA
TAFAPA
TAF AMD
KAPA 152056Z 1521/1618 02008KT P6SM SCT080 BKN120
     FM152130 18009KT P6SM VCTS SCT070CB BKN110
      TEMPO 1522/1601 VRB20G35KT -TSRA BKN070CB
     FM160100 03014G24KT P6SM VCTS SCT070CB BKN100
      TEMPO 1601/1604 TSRA BKN060CB
     FM160500 04009KT P6SM VCSH SCT030 OVC050
     FM161000 06007KT P6SM OVC015
     FM161600 VRB05KT P6SM SCT015 OVC040=

USA.gov is the U.S. government's official web portal to all federal, state and local government web resources and services.